createdAt,value
2018-06-27T00:00:24.066Z,1019.56
2018-06-27T00:01:24.067Z,1019.54
2018-06-27T00:02:24.067Z,1019.51
2018-06-27T00:03:24.079Z,1019.54
2018-06-27T00:04:24.096Z,1019.52
2018-06-27T00:05:24.069Z,1019.54
2018-06-27T00:06:24.070Z,1019.52
2018-06-27T00:07:24.073Z,1019.53
2018-06-27T00:08:24.069Z,1019.51
2018-06-27T00:09:24.273Z,1019.53
2018-06-27T00:10:24.071Z,1019.51
2018-06-27T00:11:24.277Z,1019.55
2018-06-27T00:12:24.285Z,1019.49
2018-06-27T00:13:24.087Z,1019.49
2018-06-27T00:14:24.074Z,1019.48
2018-06-27T00:15:24.077Z,1019.47
2018-06-27T00:16:24.292Z,1019.43
2018-06-27T00:17:24.088Z,1019.45
2018-06-27T00:18:24.106Z,1019.47
2018-06-27T00:19:24.141Z,1019.43
2018-06-27T00:20:24.100Z,1019.44
2018-06-27T00:21:24.080Z,1019.44
2018-06-27T00:22:24.080Z,1019.44
2018-06-27T00:23:24.082Z,1019.39
2018-06-27T00:24:24.281Z,1019.44
2018-06-27T00:25:24.291Z,1019.42
2018-06-27T00:26:24.296Z,1019.45
2018-06-27T00:27:24.292Z,1019.43
2018-06-27T00:28:24.089Z,1019.47
2018-06-27T00:29:24.285Z,1019.47
2018-06-27T00:30:24.079Z,1019.45
2018-06-27T00:31:24.080Z,1019.45
2018-06-27T00:32:24.284Z,1019.40
2018-06-27T00:33:24.296Z,1019.41
2018-06-27T00:34:24.093Z,1019.40
2018-06-27T00:35:24.091Z,1019.46
2018-06-27T00:36:24.284Z,1019.43
2018-06-27T00:37:24.295Z,1019.43
2018-06-27T00:38:24.080Z,1019.40
2018-06-27T00:39:24.083Z,1019.40
2018-06-27T00:40:24.101Z,1019.44
2018-06-27T00:41:24.083Z,1019.38
2018-06-27T00:42:24.082Z,1019.38
2018-06-27T00:43:24.082Z,1019.38
2018-06-27T00:44:24.084Z,1019.39
2018-06-27T00:45:24.289Z,1019.39
2018-06-27T00:46:24.086Z,1019.36
2018-06-27T00:47:24.087Z,1019.39
2018-06-27T00:48:24.084Z,1019.38
2018-06-27T00:49:24.085Z,1019.43
2018-06-27T00:50:24.084Z,1019.39
2018-06-27T00:51:24.304Z,1019.38
2018-06-27T00:52:24.085Z,1019.39
2018-06-27T00:53:24.088Z,1019.39
2018-06-27T00:54:24.086Z,1019.38
2018-06-27T00:55:24.086Z,1019.37
2018-06-27T00:56:24.288Z,1019.37
2018-06-27T00:57:24.086Z,1019.39
2018-06-27T00:58:24.089Z,1019.37
2018-06-27T00:59:24.098Z,1019.37
2018-06-27T01:00:24.088Z,1019.35
2018-06-27T01:01:24.100Z,1019.36
2018-06-27T01:02:24.087Z,1019.36
2018-06-27T01:03:24.091Z,1019.37
2018-06-27T01:04:24.099Z,1019.35
2018-06-27T01:05:24.089Z,1019.34
2018-06-27T01:06:24.290Z,1019.36
2018-06-27T01:07:24.088Z,1019.36
2018-06-27T01:08:24.091Z,1019.33
2018-06-27T01:09:24.089Z,1019.32
2018-06-27T01:10:24.293Z,1019.33
2018-06-27T01:11:24.102Z,1019.33
2018-06-27T01:12:24.292Z,1019.32
2018-06-27T01:13:24.089Z,1019.31
2018-06-27T01:14:24.293Z,1019.33
2018-06-27T01:15:24.091Z,1019.37
2018-06-27T01:16:24.294Z,1019.32
2018-06-27T01:17:24.091Z,1019.32
2018-06-27T01:18:24.089Z,1019.31
2018-06-27T01:19:24.093Z,1019.33
2018-06-27T01:20:24.095Z,1019.31
2018-06-27T01:21:24.092Z,1019.30
2018-06-27T01:22:24.091Z,1019.34
2018-06-27T01:23:24.097Z,1019.35
2018-06-27T01:24:24.293Z,1019.33
2018-06-27T01:25:24.092Z,1019.35
2018-06-27T01:26:24.307Z,1019.32
2018-06-27T01:27:24.092Z,1019.33
2018-06-27T01:28:24.304Z,1019.34
2018-06-27T01:29:24.106Z,1019.36
2018-06-27T01:30:24.092Z,1019.35
2018-06-27T01:31:24.096Z,1019.32
2018-06-27T01:32:24.092Z,1019.37
2018-06-27T01:33:24.308Z,1019.35
2018-06-27T01:34:24.300Z,1019.37
2018-06-27T01:35:24.295Z,1019.38
2018-06-27T01:36:24.296Z,1019.41
2018-06-27T01:37:24.100Z,1019.39
2018-06-27T01:38:24.094Z,1019.38
2018-06-27T01:39:24.096Z,1019.43
2018-06-27T01:40:24.094Z,1019.41
2018-06-27T01:41:24.104Z,1019.42
2018-06-27T01:42:24.107Z,1019.45
2018-06-27T01:43:24.097Z,1019.45
2018-06-27T01:44:24.103Z,1019.45
2018-06-27T01:45:24.098Z,1019.47
2018-06-27T01:46:24.097Z,1019.45
2018-06-27T01:47:24.298Z,1019.43
2018-06-27T01:48:24.095Z,1019.49
2018-06-27T01:49:24.301Z,1019.46
2018-06-27T01:50:24.108Z,1019.46
2018-06-27T01:51:24.310Z,1019.50
2018-06-27T01:52:24.107Z,1019.46
2018-06-27T01:53:24.093Z,1019.52
2018-06-27T01:54:24.096Z,1019.49
2018-06-27T01:55:24.096Z,1019.48
2018-06-27T01:56:24.096Z,1019.46
2018-06-27T01:57:24.311Z,1019.44
2018-06-27T01:58:24.094Z,1019.43
2018-06-27T01:59:24.097Z,1019.47
2018-06-27T02:00:24.112Z,1019.49
2018-06-27T02:01:24.111Z,1019.48
2018-06-27T02:02:24.097Z,1019.51
2018-06-27T02:03:24.299Z,1019.53
2018-06-27T02:04:24.112Z,1019.56
2018-06-27T02:05:24.111Z,1019.54
2018-06-27T02:06:24.098Z,1019.56
2018-06-27T02:07:24.112Z,1019.53
2018-06-27T02:08:24.095Z,1019.53
2018-06-27T02:09:24.100Z,1019.55
2018-06-27T02:10:24.302Z,1019.58
2018-06-27T02:11:24.314Z,1019.51
2018-06-27T02:12:24.112Z,1019.55
2018-06-27T02:13:24.120Z,1019.56
2018-06-27T02:14:24.109Z,1019.57
2018-06-27T02:15:24.110Z,1019.56
2018-06-27T02:16:24.100Z,1019.56
2018-06-27T02:17:24.102Z,1019.55
2018-06-27T02:18:24.101Z,1019.57
2018-06-27T02:19:24.112Z,1019.59
2018-06-27T02:20:24.117Z,1019.56
2018-06-27T02:21:24.101Z,1019.58
2018-06-27T02:22:24.129Z,1019.57
2018-06-27T02:23:24.317Z,1019.59
2018-06-27T02:24:24.104Z,1019.58
2018-06-27T02:25:24.104Z,1019.53
2018-06-27T02:26:24.102Z,1019.52
2018-06-27T02:27:24.164Z,1019.51
2018-06-27T02:28:24.306Z,1019.58
2018-06-27T02:29:24.104Z,1019.50
2018-06-27T02:30:24.122Z,1019.52
2018-06-27T02:31:24.115Z,1019.51
2018-06-27T02:32:24.308Z,1019.50
2018-06-27T02:33:24.318Z,1019.48
2018-06-27T02:34:24.313Z,1019.53
2018-06-27T02:35:24.110Z,1019.51
2018-06-27T02:36:24.121Z,1019.51
2018-06-27T02:37:24.316Z,1019.50
2018-06-27T02:38:24.135Z,1019.48
2018-06-27T02:39:24.120Z,1019.45
2018-06-27T02:40:24.316Z,1019.49
2018-06-27T02:41:24.315Z,1019.46
2018-06-27T02:42:24.121Z,1019.48
2018-06-27T02:43:24.111Z,1019.45
2018-06-27T02:44:24.316Z,1019.42
2018-06-27T02:45:24.111Z,1019.44
2018-06-27T02:46:24.314Z,1019.41
2018-06-27T02:47:24.128Z,1019.40
2018-06-27T02:48:24.126Z,1019.43
2018-06-27T02:49:24.113Z,1019.42
2018-06-27T02:50:24.124Z,1019.40
2018-06-27T02:51:24.126Z,1019.41
2018-06-27T02:52:24.144Z,1019.41
2018-06-27T02:53:24.319Z,1019.46
2018-06-27T02:54:24.118Z,1019.42
2018-06-27T02:55:24.319Z,1019.44
2018-06-27T02:56:24.341Z,1019.46
2018-06-27T02:57:24.118Z,1019.43
2018-06-27T02:58:24.132Z,1019.47
2018-06-27T02:59:24.121Z,1019.43
2018-06-27T03:00:24.132Z,1019.44
2018-06-27T03:01:24.130Z,1019.44
2018-06-27T03:02:24.177Z,1019.42
2018-06-27T03:03:24.125Z,1019.43
2018-06-27T03:04:24.124Z,1019.38
2018-06-27T03:05:24.134Z,1019.38
2018-06-27T03:06:24.352Z,1019.40
2018-06-27T03:07:24.140Z,1019.44
2018-06-27T03:08:24.331Z,1019.42
2018-06-27T03:09:24.141Z,1019.42
2018-06-27T03:10:24.130Z,1019.42
2018-06-27T03:11:24.333Z,1019.45
2018-06-27T03:12:24.145Z,1019.45
2018-06-27T03:13:24.342Z,1019.47
2018-06-27T03:14:24.132Z,1019.49
2018-06-27T03:15:24.155Z,1019.52
2018-06-27T03:16:24.356Z,1019.52
2018-06-27T03:17:24.338Z,1019.53
2018-06-27T03:18:24.354Z,1019.51
2018-06-27T03:19:24.339Z,1019.54
2018-06-27T03:20:24.157Z,1019.57
2018-06-27T03:21:24.147Z,1019.53
2018-06-27T03:22:24.138Z,1019.55
2018-06-27T03:23:24.347Z,1019.61
2018-06-27T03:24:24.138Z,1019.58
2018-06-27T03:25:24.155Z,1019.60
2018-06-27T03:26:24.158Z,1019.63
2018-06-27T03:27:24.142Z,1019.64
2018-06-27T03:28:24.148Z,1019.66
2018-06-27T03:29:24.152Z,1019.63
2018-06-27T03:30:24.149Z,1019.65
2018-06-27T03:31:24.157Z,1019.63
2018-06-27T03:32:24.351Z,1019.66
2018-06-27T03:33:24.358Z,1019.63
2018-06-27T03:34:24.145Z,1019.63
2018-06-27T03:35:24.363Z,1019.60
2018-06-27T03:36:24.364Z,1019.61
2018-06-27T03:37:24.353Z,1019.66
2018-06-27T03:38:24.160Z,1019.58
2018-06-27T03:39:24.159Z,1019.60
2018-06-27T03:40:24.159Z,1019.57
2018-06-27T03:41:24.153Z,1019.60
2018-06-27T03:42:24.153Z,1019.58
2018-06-27T03:43:24.164Z,1019.59
2018-06-27T03:44:24.359Z,1019.61
2018-06-27T03:45:24.151Z,1019.61
2018-06-27T03:46:24.155Z,1019.62
2018-06-27T03:47:24.156Z,1019.62
2018-06-27T03:48:24.154Z,1019.62
2018-06-27T03:49:24.371Z,1019.63
2018-06-27T03:50:24.388Z,1019.66
2018-06-27T03:51:24.174Z,1019.64
2018-06-27T03:52:24.171Z,1019.72
2018-06-27T03:53:24.169Z,1019.71
2018-06-27T03:54:24.173Z,1019.72
2018-06-27T03:55:24.160Z,1019.69
2018-06-27T03:56:24.170Z,1019.72
2018-06-27T03:57:24.164Z,1019.71
2018-06-27T03:58:24.164Z,1019.73
2018-06-27T03:59:24.382Z,1019.72
2018-06-27T04:00:24.166Z,1019.74
2018-06-27T04:01:24.168Z,1019.76
2018-06-27T04:02:24.377Z,1019.76
2018-06-27T04:03:24.167Z,1019.74
2018-06-27T04:04:24.369Z,1019.77
2018-06-27T04:05:24.180Z,1019.77
2018-06-27T04:06:24.388Z,1019.77
2018-06-27T04:07:24.182Z,1019.79
2018-06-27T04:08:24.171Z,1019.80
2018-06-27T04:09:24.181Z,1019.81
2018-06-27T04:10:24.187Z,1019.80
2018-06-27T04:11:24.376Z,1019.80
2018-06-27T04:12:24.179Z,1019.82
2018-06-27T04:13:24.414Z,1019.81
2018-06-27T04:14:24.385Z,1019.83
2018-06-27T04:15:24.379Z,1019.86
2018-06-27T04:16:24.179Z,1019.87
2018-06-27T04:17:24.183Z,1019.87
2018-06-27T04:18:24.188Z,1019.88
2018-06-27T04:19:24.384Z,1019.87
2018-06-27T04:20:24.192Z,1019.89
2018-06-27T04:21:24.185Z,1019.89
2018-06-27T04:22:24.183Z,1019.92
2018-06-27T04:23:24.184Z,1019.87
2018-06-27T04:24:24.391Z,1019.92
2018-06-27T04:25:24.199Z,1019.91
2018-06-27T04:26:24.184Z,1019.93
2018-06-27T04:27:24.189Z,1019.93
2018-06-27T04:28:24.201Z,1019.93
2018-06-27T04:29:24.188Z,1019.94
2018-06-27T04:30:24.187Z,1019.94
2018-06-27T04:31:24.188Z,1019.99
2018-06-27T04:32:24.192Z,1019.97
2018-06-27T04:33:24.191Z,1019.98
2018-06-27T04:34:24.192Z,1020.02
2018-06-27T04:35:24.191Z,1020.03
2018-06-27T04:36:24.205Z,1020.04
2018-06-27T04:37:24.195Z,1020.02
2018-06-27T04:38:24.194Z,1020.05
2018-06-27T04:39:24.201Z,1020.04
2018-06-27T04:40:24.196Z,1020.04
2018-06-27T04:41:24.399Z,1020.04
2018-06-27T04:42:24.198Z,1020.05
2018-06-27T04:43:24.212Z,1020.06
2018-06-27T04:44:24.208Z,1020.08
2018-06-27T04:45:24.199Z,1020.12
2018-06-27T04:46:24.204Z,1020.11
2018-06-27T04:47:24.202Z,1020.11
2018-06-27T04:48:24.214Z,1020.13
2018-06-27T04:49:24.305Z,1020.13
2018-06-27T04:50:24.221Z,1020.13
2018-06-27T04:51:24.206Z,1020.12
2018-06-27T04:52:24.217Z,1020.11
2018-06-27T04:53:24.209Z,1020.11
2018-06-27T04:54:24.412Z,1020.11
2018-06-27T04:55:24.220Z,1020.11
2018-06-27T04:56:24.227Z,1020.08
2018-06-27T04:57:24.212Z,1020.08
2018-06-27T04:58:24.214Z,1020.09
2018-06-27T04:59:24.220Z,1020.06
2018-06-27T05:00:24.220Z,1020.06
2018-06-27T05:01:24.220Z,1020.03
2018-06-27T05:02:24.221Z,1020.07
2018-06-27T05:03:24.225Z,1020.00
2018-06-27T05:04:24.222Z,1019.99
2018-06-27T05:05:24.234Z,1020.01
2018-06-27T05:06:24.427Z,1020.02
2018-06-27T05:07:24.245Z,1020.01
2018-06-27T05:08:24.226Z,1020.07
2018-06-27T05:09:24.229Z,1020.07
2018-06-27T05:10:24.246Z,1020.09
2018-06-27T05:11:24.229Z,1020.08
2018-06-27T05:12:24.245Z,1020.07
2018-06-27T05:13:24.245Z,1020.08
2018-06-27T05:14:24.262Z,1020.09
2018-06-27T05:15:24.236Z,1020.08
2018-06-27T05:16:24.236Z,1020.10
2018-06-27T05:17:24.238Z,1020.11
2018-06-27T05:18:24.244Z,1020.11
2018-06-27T05:19:24.253Z,1020.09
2018-06-27T05:20:24.241Z,1020.08
2018-06-27T05:21:24.457Z,1020.08
2018-06-27T05:22:24.249Z,1020.12
2018-06-27T05:23:24.248Z,1020.10
2018-06-27T05:24:24.246Z,1020.11
2018-06-27T05:25:24.246Z,1020.09
2018-06-27T05:26:24.248Z,1020.12
2018-06-27T05:27:24.329Z,1020.13
2018-06-27T05:28:24.465Z,1020.09
2018-06-27T05:29:24.255Z,1020.11
2018-06-27T05:30:24.254Z,1020.09
2018-06-27T05:31:24.256Z,1020.10
2018-06-27T05:32:24.296Z,1020.11
2018-06-27T05:33:24.266Z,1020.15
2018-06-27T05:34:24.464Z,1020.12
2018-06-27T05:35:24.261Z,1020.11
2018-06-27T05:36:24.261Z,1020.15
2018-06-27T05:37:24.271Z,1020.15
2018-06-27T05:38:24.262Z,1020.13
2018-06-27T05:39:24.264Z,1020.14
2018-06-27T05:40:24.479Z,1020.14
2018-06-27T05:41:24.471Z,1020.13
2018-06-27T05:42:24.480Z,1020.15
2018-06-27T05:43:24.269Z,1020.15
2018-06-27T05:44:24.333Z,1020.13
2018-06-27T05:45:24.275Z,1020.14
2018-06-27T05:46:24.479Z,1020.17
2018-06-27T05:47:24.286Z,1020.16
2018-06-27T05:48:24.488Z,1020.19
2018-06-27T05:49:24.290Z,1020.19
2018-06-27T05:50:24.480Z,1020.18
2018-06-27T05:51:24.280Z,1020.20
2018-06-27T05:52:24.494Z,1020.16
2018-06-27T05:53:24.282Z,1020.17
2018-06-27T05:54:24.283Z,1020.20
2018-06-27T05:55:24.487Z,1020.17
2018-06-27T05:56:24.295Z,1020.17
2018-06-27T05:57:24.330Z,1020.19
2018-06-27T05:58:24.370Z,1020.18
2018-06-27T05:59:24.300Z,1020.22
2018-06-27T06:00:24.500Z,1020.18
2018-06-27T06:01:24.492Z,1020.21
2018-06-27T06:02:24.307Z,1020.20
2018-06-27T06:03:24.292Z,1020.22
2018-06-27T06:04:24.348Z,1020.18
2018-06-27T06:05:24.498Z,1020.18
2018-06-27T06:06:24.505Z,1020.17
2018-06-27T06:07:24.519Z,1020.21
2018-06-27T06:08:24.306Z,1020.22
2018-06-27T06:09:24.298Z,1020.24
2018-06-27T06:10:24.504Z,1020.23
2018-06-27T06:11:24.327Z,1020.28
2018-06-27T06:12:24.562Z,1020.25
2018-06-27T06:13:24.333Z,1020.22
2018-06-27T06:14:24.304Z,1020.24
2018-06-27T06:15:24.509Z,1020.20
2018-06-27T06:16:24.308Z,1020.17
2018-06-27T06:17:24.310Z,1020.16
2018-06-27T06:18:24.514Z,1020.13
2018-06-27T06:19:24.309Z,1020.13
2018-06-27T06:20:24.316Z,1020.14
2018-06-27T06:21:24.529Z,1020.18
2018-06-27T06:22:24.338Z,1020.16
2018-06-27T06:23:24.316Z,1020.13
2018-06-27T06:24:24.318Z,1020.14
2018-06-27T06:25:24.366Z,1020.18
2018-06-27T06:26:24.330Z,1020.15
2018-06-27T06:27:24.323Z,1020.17
2018-06-27T06:28:24.524Z,1020.19
2018-06-27T06:29:24.524Z,1020.19
2018-06-27T06:30:24.323Z,1020.16
2018-06-27T06:31:24.325Z,1020.18
2018-06-27T06:32:24.330Z,1020.17
2018-06-27T06:33:24.529Z,1020.17
2018-06-27T06:34:24.340Z,1020.14
2018-06-27T06:35:24.546Z,1020.16
2018-06-27T06:36:24.371Z,1020.15
2018-06-27T06:37:24.338Z,1020.10
2018-06-27T06:38:24.342Z,1020.10
2018-06-27T06:39:24.351Z,1020.08
2018-06-27T06:40:24.341Z,1020.12
2018-06-27T06:41:24.362Z,1020.11
2018-06-27T06:42:24.337Z,1020.13
2018-06-27T06:43:24.357Z,1020.13
2018-06-27T06:44:24.343Z,1020.11
2018-06-27T06:45:24.343Z,1020.13
2018-06-27T06:46:24.355Z,1020.14
2018-06-27T06:47:24.345Z,1020.14
2018-06-27T06:48:24.345Z,1020.17
2018-06-27T06:49:24.347Z,1020.14
2018-06-27T06:50:24.363Z,1020.16
2018-06-27T06:51:24.365Z,1020.19
2018-06-27T06:52:24.367Z,1020.19
2018-06-27T06:53:24.356Z,1020.23
2018-06-27T06:54:24.387Z,1020.25
2018-06-27T06:55:24.371Z,1020.27
2018-06-27T06:56:24.384Z,1020.25
2018-06-27T06:57:24.575Z,1020.22
2018-06-27T06:58:24.360Z,1020.21
2018-06-27T06:59:24.366Z,1020.21
2018-06-27T07:00:24.364Z,1020.24
2018-06-27T07:01:24.376Z,1020.25
2018-06-27T07:02:24.370Z,1020.23
2018-06-27T07:03:24.369Z,1020.25
2018-06-27T07:04:24.574Z,1020.27
2018-06-27T07:05:24.372Z,1020.30
2018-06-27T07:06:24.384Z,1020.30
2018-06-27T07:07:24.375Z,1020.30
2018-06-27T07:08:24.378Z,1020.34
2018-06-27T07:09:24.379Z,1020.36
2018-06-27T07:10:24.389Z,1020.33
2018-06-27T07:11:24.546Z,1020.32
2018-06-27T07:12:24.396Z,1020.32
2018-06-27T07:13:24.588Z,1020.32
2018-06-27T07:14:24.387Z,1020.27
2018-06-27T07:15:24.393Z,1020.31
2018-06-27T07:16:24.410Z,1020.28
2018-06-27T07:17:24.392Z,1020.28
2018-06-27T07:18:24.395Z,1020.22
2018-06-27T07:19:24.598Z,1020.23
2018-06-27T07:20:24.399Z,1020.24
2018-06-27T07:21:24.399Z,1020.25
2018-06-27T07:22:24.401Z,1020.29
2018-06-27T07:23:24.404Z,1020.29
2018-06-27T07:24:24.418Z,1020.31
2018-06-27T07:25:24.405Z,1020.32
2018-06-27T07:26:24.408Z,1020.35
2018-06-27T07:27:24.630Z,1020.34
2018-06-27T07:28:24.638Z,1020.30
2018-06-27T07:29:24.425Z,1020.31
2018-06-27T07:30:24.415Z,1020.32
2018-06-27T07:31:24.418Z,1020.30
2018-06-27T07:32:24.637Z,1020.30
2018-06-27T07:33:24.421Z,1020.26
2018-06-27T07:34:24.638Z,1020.29
2018-06-27T07:35:24.436Z,1020.27
2018-06-27T07:36:24.439Z,1020.29
2018-06-27T07:37:24.439Z,1020.28
2018-06-27T07:38:24.636Z,1020.27
2018-06-27T07:39:24.664Z,1020.28
2018-06-27T07:40:24.650Z,1020.28
2018-06-27T07:41:24.652Z,1020.30
2018-06-27T07:42:24.465Z,1020.26
2018-06-27T07:43:24.459Z,1020.28
2018-06-27T07:44:24.480Z,1020.29
2018-06-27T07:45:24.473Z,1020.29
2018-06-27T07:46:24.465Z,1020.32
2018-06-27T07:47:24.456Z,1020.28
2018-06-27T07:48:24.455Z,1020.30
2018-06-27T07:49:24.457Z,1020.28
2018-06-27T07:50:24.459Z,1020.30
2018-06-27T07:51:24.463Z,1020.29
2018-06-27T07:52:24.463Z,1020.29
2018-06-27T07:53:24.465Z,1020.28
2018-06-27T07:54:24.478Z,1020.27
2018-06-27T07:55:24.478Z,1020.30
2018-06-27T07:56:24.478Z,1020.25
2018-06-27T07:57:24.490Z,1020.27
2018-06-27T07:58:24.489Z,1020.33
2018-06-27T07:59:24.506Z,1020.34
2018-06-27T08:00:24.496Z,1020.28
2018-06-27T08:01:24.484Z,1020.27
2018-06-27T08:02:24.489Z,1020.33
2018-06-27T08:03:24.490Z,1020.35
2018-06-27T08:04:24.500Z,1020.34
2018-06-27T08:05:24.508Z,1020.34
2018-06-27T08:06:24.703Z,1020.35
2018-06-27T08:07:24.501Z,1020.34
2018-06-27T08:08:24.707Z,1020.37
2018-06-27T08:09:24.504Z,1020.35
2018-06-27T08:10:24.507Z,1020.33
2018-06-27T08:11:24.509Z,1020.36
2018-06-27T08:12:24.542Z,1020.34
2018-06-27T08:13:24.528Z,1020.34
2018-06-27T08:14:24.519Z,1020.34
2018-06-27T08:15:24.534Z,1020.35
2018-06-27T08:16:24.525Z,1020.35
2018-06-27T08:17:24.745Z,1020.36
2018-06-27T08:18:24.750Z,1020.35
2018-06-27T08:19:24.533Z,1020.35
2018-06-27T08:20:24.738Z,1020.36
2018-06-27T08:21:24.753Z,1020.36
2018-06-27T08:22:24.750Z,1020.29
2018-06-27T08:23:24.557Z,1020.31
2018-06-27T08:24:24.762Z,1020.29
2018-06-27T08:25:24.553Z,1020.30
2018-06-27T08:26:24.898Z,1020.32
2018-06-27T08:27:24.575Z,1020.32
2018-06-27T08:28:24.768Z,1020.31
2018-06-27T08:29:24.767Z,1020.30
2018-06-27T08:30:24.586Z,1020.25
2018-06-27T08:31:24.571Z,1020.27
2018-06-27T08:32:24.583Z,1020.25
2018-06-27T08:33:24.576Z,1020.26
2018-06-27T08:34:24.581Z,1020.24
2018-06-27T08:35:24.786Z,1020.23
2018-06-27T08:36:24.598Z,1020.25
2018-06-27T08:37:24.587Z,1020.22
2018-06-27T08:38:24.592Z,1020.20
2018-06-27T08:39:24.621Z,1020.20
2018-06-27T08:40:24.809Z,1020.17
2018-06-27T08:41:24.602Z,1020.21
2018-06-27T08:42:24.803Z,1020.21
2018-06-27T08:43:24.606Z,1020.21
2018-06-27T08:44:24.668Z,1020.14
2018-06-27T08:45:24.611Z,1020.16
2018-06-27T08:46:24.626Z,1020.17
2018-06-27T08:47:24.617Z,1020.12
2018-06-27T08:48:24.836Z,1020.09
2018-06-27T08:49:24.639Z,1020.04
2018-06-27T08:50:24.628Z,1020.06
2018-06-27T08:51:24.843Z,1020.06
2018-06-27T08:52:24.634Z,1020.04
2018-06-27T08:53:24.634Z,1020.04
2018-06-27T08:54:24.638Z,1020.00
2018-06-27T08:55:24.653Z,1020.04
2018-06-27T08:56:24.653Z,1020.00
2018-06-27T08:57:24.661Z,1020.01
2018-06-27T08:58:24.648Z,1020.03
2018-06-27T09:01:24.671Z,1020.02
2018-06-27T09:02:24.674Z,1019.98
2018-06-27T09:03:24.664Z,1019.98
2018-06-27T09:04:24.667Z,1019.93
2018-06-27T09:05:24.679Z,1019.93
2018-06-27T09:06:24.690Z,1019.93
2018-06-27T09:07:24.677Z,1019.92
2018-06-27T09:08:24.703Z,1019.89
2018-06-27T09:09:24.696Z,1019.90
2018-06-27T09:10:24.708Z,1019.88
2018-06-27T09:11:24.700Z,1019.91
2018-06-27T09:12:24.692Z,1019.89
2018-06-27T09:13:24.897Z,1019.88
2018-06-27T09:14:24.696Z,1019.89
2018-06-27T09:15:24.710Z,1019.91
2018-06-27T09:16:24.716Z,1019.91
2018-06-27T09:17:24.707Z,1019.90
2018-06-27T09:18:24.707Z,1019.88
2018-06-27T09:19:24.931Z,1019.86
2018-06-27T09:20:24.918Z,1019.88
2018-06-27T09:21:24.718Z,1019.86
2018-06-27T09:22:24.925Z,1019.86
2018-06-27T09:23:24.735Z,1019.80
2018-06-27T09:24:24.939Z,1019.85
2018-06-27T09:25:24.745Z,1019.79
2018-06-27T09:26:24.949Z,1019.83
2018-06-27T09:27:24.938Z,1019.81
2018-06-27T09:28:24.942Z,1019.80
2018-06-27T09:29:24.742Z,1019.79
2018-06-27T09:30:24.768Z,1019.80
2018-06-27T09:31:24.749Z,1019.78
2018-06-27T09:32:24.968Z,1019.80
2018-06-27T09:33:24.753Z,1019.76
2018-06-27T09:34:24.759Z,1019.76
2018-06-27T09:35:24.963Z,1019.78
2018-06-27T09:36:24.762Z,1019.72
2018-06-27T09:37:24.775Z,1019.74
2018-06-27T09:38:24.769Z,1019.72
2018-06-27T09:39:24.772Z,1019.73
2018-06-27T09:40:24.996Z,1019.72
2018-06-27T09:41:24.779Z,1019.68
2018-06-27T09:42:24.983Z,1019.67
2018-06-27T09:43:24.784Z,1019.71
2018-06-27T09:44:24.787Z,1019.69
2018-06-27T09:45:25.006Z,1019.72
2018-06-27T09:46:24.807Z,1019.68
2018-06-27T09:47:24.817Z,1019.72
2018-06-27T09:48:24.802Z,1019.71
2018-06-27T09:49:25.016Z,1019.70
2018-06-27T09:50:24.871Z,1019.65
2018-06-27T09:51:24.810Z,1019.61
2018-06-27T09:52:25.034Z,1019.62
2018-06-27T09:53:24.817Z,1019.59
2018-06-27T09:54:24.831Z,1019.59
2018-06-27T09:55:24.838Z,1019.56
2018-06-27T09:56:24.833Z,1019.57
2018-06-27T09:57:25.044Z,1019.53
2018-06-27T09:58:24.842Z,1019.54
2018-06-27T09:59:24.847Z,1019.56
2018-06-27T10:00:25.044Z,1019.55
2018-06-27T10:01:24.852Z,1019.55
2018-06-27T10:02:25.050Z,1019.50
2018-06-27T10:03:24.864Z,1019.51
2018-06-27T10:04:24.853Z,1019.51
2018-06-27T10:05:24.864Z,1019.51
2018-06-27T10:06:24.877Z,1019.52
2018-06-27T10:07:25.092Z,1019.47
2018-06-27T10:08:24.878Z,1019.50
2018-06-27T10:09:24.868Z,1019.41
2018-06-27T10:10:24.909Z,1019.47
2018-06-27T10:11:25.090Z,1019.43
2018-06-27T10:12:24.888Z,1019.42
2018-06-27T10:13:25.094Z,1019.44
2018-06-27T10:14:24.888Z,1019.45
2018-06-27T10:15:24.900Z,1019.39
2018-06-27T10:16:24.893Z,1019.42
2018-06-27T10:17:24.896Z,1019.39
2018-06-27T10:18:24.956Z,1019.35
2018-06-27T10:19:25.125Z,1019.38
2018-06-27T10:20:24.910Z,1019.32
2018-06-27T10:21:24.921Z,1019.38
2018-06-27T10:22:24.982Z,1019.31
2018-06-27T10:23:24.930Z,1019.29
2018-06-27T10:24:24.919Z,1019.32
2018-06-27T10:25:24.925Z,1019.29
2018-06-27T10:26:24.927Z,1019.26
2018-06-27T10:27:24.932Z,1019.26
2018-06-27T10:28:24.951Z,1019.30
2018-06-27T10:29:24.941Z,1019.26
2018-06-27T10:30:24.944Z,1019.28
2018-06-27T10:31:24.959Z,1019.26
2018-06-27T10:32:24.948Z,1019.25
2018-06-27T10:33:24.979Z,1019.30
2018-06-27T10:34:24.967Z,1019.27
2018-06-27T10:35:25.163Z,1019.18
2018-06-27T10:36:24.966Z,1019.15
2018-06-27T10:37:24.997Z,1019.15
2018-06-27T10:38:24.985Z,1019.15
2018-06-27T10:39:24.979Z,1019.12
2018-06-27T10:40:24.993Z,1019.16
2018-06-27T10:41:24.992Z,1019.16
2018-06-27T10:42:24.989Z,1019.18
2018-06-27T10:43:24.991Z,1019.14
2018-06-27T10:44:25.011Z,1019.15
2018-06-27T10:45:24.996Z,1019.03
2018-06-27T10:46:25.013Z,1019.17
2018-06-27T10:47:25.216Z,1019.11
2018-06-27T10:48:25.235Z,1019.10
2018-06-27T10:49:25.013Z,1019.10
2018-06-27T10:50:25.018Z,1019.08
2018-06-27T10:51:25.025Z,1019.02
2018-06-27T10:52:25.239Z,1019.05
2018-06-27T10:53:25.034Z,1019.02
2018-06-27T10:54:25.054Z,1019.04
2018-06-27T10:55:25.241Z,1019.04
2018-06-27T10:56:25.043Z,1019.04
2018-06-27T10:57:25.249Z,1019.01
2018-06-27T10:58:25.050Z,1018.98
2018-06-27T10:59:25.257Z,1019.04
2018-06-27T11:00:25.058Z,1018.98
2018-06-27T11:01:25.074Z,1018.95
2018-06-27T11:02:25.283Z,1018.96
2018-06-27T11:03:25.072Z,1018.90
2018-06-27T11:04:25.287Z,1018.87
2018-06-27T11:05:25.120Z,1018.95
2018-06-27T11:06:25.286Z,1018.87
2018-06-27T11:07:25.292Z,1018.92
2018-06-27T11:08:25.297Z,1018.87
2018-06-27T11:09:25.099Z,1018.88
2018-06-27T11:10:25.115Z,1018.80
2018-06-27T11:11:25.325Z,1018.85
2018-06-27T11:12:25.111Z,1018.86
2018-06-27T11:13:25.113Z,1018.83
2018-06-27T11:14:25.144Z,1018.77
2018-06-27T11:15:25.337Z,1018.78
2018-06-27T11:16:25.131Z,1018.74
2018-06-27T11:17:25.143Z,1018.75
2018-06-27T11:18:25.148Z,1018.70
2018-06-27T11:19:25.162Z,1018.65
2018-06-27T11:20:25.180Z,1018.60
2018-06-27T11:21:25.161Z,1018.68
2018-06-27T11:22:25.157Z,1018.71
2018-06-27T11:23:25.159Z,1018.68
2018-06-27T11:24:25.174Z,1018.76
2018-06-27T11:25:25.168Z,1018.73
2018-06-27T11:26:25.173Z,1018.64
2018-06-27T11:27:25.190Z,1018.67
2018-06-27T11:28:25.181Z,1018.60
2018-06-27T11:29:25.226Z,1018.58
2018-06-27T11:30:25.193Z,1018.60
2018-06-27T11:31:25.211Z,1018.60
2018-06-27T11:32:25.203Z,1018.56
2018-06-27T11:33:25.217Z,1018.64
2018-06-27T11:34:25.431Z,1018.60
2018-06-27T11:35:25.215Z,1018.61
2018-06-27T11:36:25.222Z,1018.50
2018-06-27T11:37:25.434Z,1018.53
2018-06-27T11:38:25.289Z,1018.56
2018-06-27T11:39:25.235Z,1018.52
2018-06-27T11:40:25.258Z,1018.51
2018-06-27T11:41:25.253Z,1018.51
2018-06-27T11:42:25.461Z,1018.55
2018-06-27T11:43:25.454Z,1018.53
2018-06-27T11:44:25.274Z,1018.54
2018-06-27T11:45:25.265Z,1018.61
2018-06-27T11:46:25.264Z,1018.53
2018-06-27T11:47:25.283Z,1018.55
2018-06-27T11:48:25.480Z,1018.54
2018-06-27T11:49:25.491Z,1018.53
2018-06-27T11:50:25.284Z,1018.54
2018-06-27T11:51:25.293Z,1018.49
2018-06-27T11:52:25.296Z,1018.44
2018-06-27T11:53:25.330Z,1018.50
2018-06-27T11:54:25.532Z,1018.53
2018-06-27T11:55:25.309Z,1018.51
2018-06-27T11:56:25.327Z,1018.45
2018-06-27T11:57:25.317Z,1018.53
2018-06-27T11:58:25.337Z,1018.50
2018-06-27T11:59:25.338Z,1018.53
2018-06-27T12:00:25.345Z,1018.52
2018-06-27T12:01:25.540Z,1018.58
2018-06-27T12:02:25.341Z,1018.54
2018-06-27T12:03:25.548Z,1018.52
2018-06-27T12:04:25.365Z,1018.53
2018-06-27T12:05:25.365Z,1018.53
2018-06-27T12:06:25.363Z,1018.51
2018-06-27T12:07:25.366Z,1018.52